Vernon, IL (62892)

06:34 PM CDT del 18 Aprile 2015 (GMT -0500)
0IL2 - Griffin Airport - | | Change Station
CLOSE
Current Station
Stazione meteo personale
Location: Alma, IL
Altitudine: 540 ft
Stazioni meteo nelle vicinanze

Alt. 540 ft 38.80 °N, 89.00 °W | Updated 3 seconds ago

Parzialmente nuvoloso
Parzialmente nuvoloso
75.4 °F
Sembra 78 °F
N
3.0
Vento Variabile Vento da ESE
Gusts 8.0 mph

Oggi
Massima -- | Minima -- °F
--% Possibilità di precip.
Ieri
Massima -- | Minima -- °F
Precip. -- in
6:16 AM 7:35 PM
Luna nuova, 0% visible
Pressione 29.90 in
Visibilità 10.0 miglia
Nuvole Sereno
Indice di calore 78 °F
Punto di rugiada 59 °F
Umidità 56%
Piovosità 0.00 in
Spessore del manto nevoso Non disponibile.
Raggi UV 1 fuori da 12
Polline 9.50 fuori da 12
Qualità dell'aria Non disponibile.
Flu Activity Regional
METAR KSLO 182315Z AUTO 09005KT 10SM CLR 25/12 A2990 RMK AO2 T02520118

More Conditions Fewer Conditions

Pressione 29.90 in
Visibilità 10.0 miglia
Nuvole Sereno
Indice di calore 78 °F
Punto di rugiada 59 °F
Umidità 56%
Piovosità 0.00 in
Spessore del manto nevoso Non disponibile.
Raggi UV 1 fuori da 12
Polline 9.50 fuori da 12
Qualità dell'aria Non disponibile.
Flu Activity Regional
METAR KSLO 182315Z AUTO 09005KT 10SM CLR 25/12 A2990 RMK AO2 T02520118

More Conditions Fewer Conditions

10-Day Weather Forecast

Almanac

Astronomia

Apr. 18, 2015 Alba Tramonto
Ora attuale
Crepuscolo civile
Crepuscolo nautico
Crepuscolo astronomico
Luna
Estensione della luce visibile
Lunghezza del giorno
Tomorrow will be .
, % of the Moon is Illuminated

Gli estremi di oggi

State Highs State Lows

Community

WunderPhotos

Upload Photos

1,814,576 foto caricate!

WunderBlogs® & News

Nearby

Qualità dell'aria

  Qualità dell'aria Indice AQ Inquinante
Not available.

Profondità neve

Stazione Profondità Altitudine

Attività sismica

Città  Distanza Mag. Data & Ora
Minimo Magnitudo Mostrato è 2.5.

Temperature delle acque costiere

Località Temperatura

Stations

Stazioni meteo nelle vicinanze

Ubicazione della stazione Temp. Raffreddamento del vento Punto di rugiada Umidità Vento Precip. Alt. Aggiornato Tipo